sensor_id;sensor_type;location;lat;lon;timestamp;temperature;humidity
5899;DHT22;2975;50.956;6.962;2023-04-06T00:01:52;3.80;99.40
5899;DHT22;2975;50.956;6.962;2023-04-06T00:04:18;3.70;99.60
5899;DHT22;2975;50.956;6.962;2023-04-06T00:06:43;3.60;99.90
5899;DHT22;2975;50.956;6.962;2023-04-06T00:09:09;3.50;99.90
5899;DHT22;2975;50.956;6.962;2023-04-06T00:11:35;3.40;99.90
5899;DHT22;2975;50.956;6.962;2023-04-06T00:14:01;3.50;99.90
5899;DHT22;2975;50.956;6.962;2023-04-06T00:16:27;3.50;99.90
5899;DHT22;2975;50.956;6.962;2023-04-06T00:18:53;3.70;99.90
5899;DHT22;2975;50.956;6.962;2023-04-06T00:21:19;3.70;99.90
5899;DHT22;2975;50.956;6.962;2023-04-06T00:23:45;3.70;99.90
5899;DHT22;2975;50.956;6.962;2023-04-06T00:26:10;3.60;99.90
5899;DHT22;2975;50.956;6.962;2023-04-06T00:28:39;3.60;99.90
5899;DHT22;2975;50.956;6.962;2023-04-06T00:31:05;3.40;99.90
5899;DHT22;2975;50.956;6.962;2023-04-06T00:33:32;3.40;99.90
5899;DHT22;2975;50.956;6.962;2023-04-06T00:35:57;3.30;99.90
5899;DHT22;2975;50.956;6.962;2023-04-06T00:38:23;3.30;99.90
5899;DHT22;2975;50.956;6.962;2023-04-06T00:40:49;3.20;99.90
5899;DHT22;2975;50.956;6.962;2023-04-06T00:43:15;3.10;99.90
5899;DHT22;2975;50.956;6.962;2023-04-06T00:45:42;3.20;99.90
5899;DHT22;2975;50.956;6.962;2023-04-06T00:48:08;3.10;99.90
5899;DHT22;2975;50.956;6.962;2023-04-06T00:50:35;3.20;99.90
5899;DHT22;2975;50.956;6.962;2023-04-06T00:53:01;3.20;99.90
5899;DHT22;2975;50.956;6.962;2023-04-06T00:55:27;3.20;99.90
5899;DHT22;2975;50.956;6.962;2023-04-06T00:57:54;3.10;99.90
5899;DHT22;2975;50.956;6.962;2023-04-06T01:00:22;3.10;99.90
5899;DHT22;2975;50.956;6.962;2023-04-06T01:02:48;3.10;99.90
5899;DHT22;2975;50.956;6.962;2023-04-06T01:05:15;3.10;99.90
5899;DHT22;2975;50.956;6.962;2023-04-06T01:07:40;3.10;99.90
5899;DHT22;2975;50.956;6.962;2023-04-06T01:10:06;3.10;99.90
5899;DHT22;2975;50.956;6.962;2023-04-06T01:12:32;3.20;99.90
5899;DHT22;2975;50.956;6.962;2023-04-06T01:14:59;3.10;99.90
5899;DHT22;2975;50.956;6.962;2023-04-06T01:17:25;3.00;99.90
5899;DHT22;2975;50.956;6.962;2023-04-06T01:19:51;2.90;99.90
5899;DHT22;2975;50.956;6.962;2023-04-06T01:22:19;2.90;99.90
5899;DHT22;2975;50.956;6.962;2023-04-06T01:24:46;2.90;99.90
5899;DHT22;2975;50.956;6.962;2023-04-06T01:27:12;2.80;99.90
5899;DHT22;2975;50.956;6.962;2023-04-06T01:29:39;2.70;99.90
5899;DHT22;2975;50.956;6.962;2023-04-06T01:32:07;2.60;99.90
5899;DHT22;2975;50.956;6.962;2023-04-06T01:34:33;2.60;99.90
5899;DHT22;2975;50.956;6.962;2023-04-06T01:36:59;2.60;99.90
5899;DHT22;2975;50.956;6.962;2023-04-06T01:39:25;2.60;99.90
5899;DHT22;2975;50.956;6.962;2023-04-06T01:41:51;2.60;99.90
5899;DHT22;2975;50.956;6.962;2023-04-06T01:44:18;2.50;99.90
5899;DHT22;2975;50.956;6.962;2023-04-06T01:46:44;2.60;99.90
5899;DHT22;2975;50.956;6.962;2023-04-06T01:49:12;2.50;99.90
5899;DHT22;2975;50.956;6.962;2023-04-06T01:51:38;2.50;99.90
5899;DHT22;2975;50.956;6.962;2023-04-06T01:54:04;2.40;99.90
5899;DHT22;2975;50.956;6.962;2023-04-06T01:56:30;2.40;99.90
5899;DHT22;2975;50.956;6.962;2023-04-06T01:58:55;2.30;99.90
5899;DHT22;2975;50.956;6.962;2023-04-06T02:01:22;2.30;99.90
5899;DHT22;2975;50.956;6.962;2023-04-06T02:03:48;2.40;99.90
5899;DHT22;2975;50.956;6.962;2023-04-06T02:06:13;2.40;99.90
5899;DHT22;2975;50.956;6.962;2023-04-06T02:08:39;2.50;99.90
5899;DHT22;2975;50.956;6.962;2023-04-06T02:11:05;2.60;99.90
5899;DHT22;2975;50.956;6.962;2023-04-06T02:13:31;2.60;99.90
5899;DHT22;2975;50.956;6.962;2023-04-06T02:15:57;2.70;99.80
5899;DHT22;2975;50.956;6.962;2023-04-06T02:18:23;2.80;99.50
5899;DHT22;2975;50.956;6.962;2023-04-06T02:20:49;2.90;99.30
5899;DHT22;2975;50.956;6.962;2023-04-06T02:23:15;2.90;99.00
5899;DHT22;2975;50.956;6.962;2023-04-06T02:25:41;2.80;99.00
5899;DHT22;2975;50.956;6.962;2023-04-06T02:28:07;2.70;99.40
5899;DHT22;2975;50.956;6.962;2023-04-06T02:30:33;2.60;99.80
5899;DHT22;2975;50.956;6.962;2023-04-06T02:33:00;2.70;99.90
5899;DHT22;2975;50.956;6.962;2023-04-06T02:35:27;2.70;99.90
5899;DHT22;2975;50.956;6.962;2023-04-06T02:37:53;2.60;99.80
5899;DHT22;2975;50.956;6.962;2023-04-06T02:40:19;2.50;99.90
5899;DHT22;2975;50.956;6.962;2023-04-06T02:42:45;2.40;99.90
5899;DHT22;2975;50.956;6.962;2023-04-06T02:45:11;2.40;99.90
5899;DHT22;2975;50.956;6.962;2023-04-06T02:47:36;2.30;99.90
5899;DHT22;2975;50.956;6.962;2023-04-06T02:50:03;2.30;99.90
5899;DHT22;2975;50.956;6.962;2023-04-06T02:52:28;2.30;99.90
5899;DHT22;2975;50.956;6.962;2023-04-06T02:54:54;2.40;99.90
5899;DHT22;2975;50.956;6.962;2023-04-06T02:57:20;2.50;99.90
5899;DHT22;2975;50.956;6.962;2023-04-06T02:59:46;2.60;99.50
5899;DHT22;2975;50.956;6.962;2023-04-06T03:02:12;2.70;99.10
5899;DHT22;2975;50.956;6.962;2023-04-06T03:04:38;2.70;98.90
5899;DHT22;2975;50.956;6.962;2023-04-06T03:07:03;2.70;98.90
5899;DHT22;2975;50.956;6.962;2023-04-06T03:09:29;2.70;99.10
5899;DHT22;2975;50.956;6.962;2023-04-06T03:11:55;2.70;98.90
5899;DHT22;2975;50.956;6.962;2023-04-06T03:14:21;2.60;99.50
5899;DHT22;2975;50.956;6.962;2023-04-06T03:16:48;2.60;99.60
5899;DHT22;2975;50.956;6.962;2023-04-06T03:19:14;2.50;99.20
5899;DHT22;2975;50.956;6.962;2023-04-06T03:21:40;2.40;99.30
5899;DHT22;2975;50.956;6.962;2023-04-06T03:24:07;2.30;99.50
5899;DHT22;2975;50.956;6.962;2023-04-06T03:26:33;2.20;99.50
5899;DHT22;2975;50.956;6.962;2023-04-06T03:28:59;2.20;99.70
5899;DHT22;2975;50.956;6.962;2023-04-06T03:31:25;2.20;99.90
5899;DHT22;2975;50.956;6.962;2023-04-06T03:33:51;2.10;99.90
5899;DHT22;2975;50.956;6.962;2023-04-06T03:36:17;2.10;99.90
5899;DHT22;2975;50.956;6.962;2023-04-06T03:38:43;2.10;99.90
5899;DHT22;2975;50.956;6.962;2023-04-06T03:41:08;2.10;99.90
5899;DHT22;2975;50.956;6.962;2023-04-06T03:43:34;2.10;99.90
5899;DHT22;2975;50.956;6.962;2023-04-06T03:46:00;2.30;99.90
5899;DHT22;2975;50.956;6.962;2023-04-06T03:48:26;2.20;99.90
5899;DHT22;2975;50.956;6.962;2023-04-06T03:50:52;2.30;99.90
5899;DHT22;2975;50.956;6.962;2023-04-06T03:53:17;2.30;99.90
5899;DHT22;2975;50.956;6.962;2023-04-06T03:55:43;2.20;99.90
5899;DHT22;2975;50.956;6.962;2023-04-06T03:58:09;2.20;99.90
5899;DHT22;2975;50.956;6.962;2023-04-06T04:00:35;2.10;99.90
5899;DHT22;2975;50.956;6.962;2023-04-06T04:03:01;2.00;99.90
5899;DHT22;2975;50.956;6.962;2023-04-06T04:05:28;1.90;99.90
5899;DHT22;2975;50.956;6.962;2023-04-06T04:07:54;1.80;99.90
5899;DHT22;2975;50.956;6.962;2023-04-06T04:10:21;1.80;99.90
5899;DHT22;2975;50.956;6.962;2023-04-06T04:12:46;2.00;99.90
5899;DHT22;2975;50.956;6.962;2023-04-06T04:15:12;2.10;99.90
5899;DHT22;2975;50.956;6.962;2023-04-06T04:17:38;2.10;99.90
5899;DHT22;2975;50.956;6.962;2023-04-06T04:20:04;2.20;99.90
5899;DHT22;2975;50.956;6.962;2023-04-06T04:22:30;2.30;99.90
5899;DHT22;2975;50.956;6.962;2023-04-06T04:24:56;2.40;99.90
5899;DHT22;2975;50.956;6.962;2023-04-06T04:27:22;2.50;99.90
5899;DHT22;2975;50.956;6.962;2023-04-06T04:29:48;2.50;99.60
5899;DHT22;2975;50.956;6.962;2023-04-06T04:32:13;2.50;99.20
5899;DHT22;2975;50.956;6.962;2023-04-06T04:34:39;2.40;99.40
5899;DHT22;2975;50.956;6.962;2023-04-06T04:37:06;2.40;99.40
5899;DHT22;2975;50.956;6.962;2023-04-06T04:39:32;2.40;99.30
5899;DHT22;2975;50.956;6.962;2023-04-06T04:41:58;2.50;99.20
5899;DHT22;2975;50.956;6.962;2023-04-06T04:44:24;2.50;99.10
5899;DHT22;2975;50.956;6.962;2023-04-06T04:46:50;2.50;99.00
5899;DHT22;2975;50.956;6.962;2023-04-06T04:49:16;2.50;99.20
5899;DHT22;2975;50.956;6.962;2023-04-06T04:51:41;2.60;99.10
5899;DHT22;2975;50.956;6.962;2023-04-06T04:54:07;2.60;98.80
5899;DHT22;2975;50.956;6.962;2023-04-06T04:56:33;2.60;98.50
5899;DHT22;2975;50.956;6.962;2023-04-06T04:58:59;2.70;98.00
5899;DHT22;2975;50.956;6.962;2023-04-06T05:01:24;2.80;97.60
5899;DHT22;2975;50.956;6.962;2023-04-06T05:03:50;2.80;97.50
5899;DHT22;2975;50.956;6.962;2023-04-06T05:06:16;2.80;97.50
5899;DHT22;2975;50.956;6.962;2023-04-06T05:08:43;2.70;97.40
5899;DHT22;2975;50.956;6.962;2023-04-06T05:11:09;2.70;97.30
5899;DHT22;2975;50.956;6.962;2023-04-06T05:13:35;2.80;97.00
5899;DHT22;2975;50.956;6.962;2023-04-06T05:16:01;3.00;96.60
5899;DHT22;2975;50.956;6.962;2023-04-06T05:18:27;3.10;96.00
5899;DHT22;2975;50.956;6.962;2023-04-06T05:20:52;3.20;95.80
5899;DHT22;2975;50.956;6.962;2023-04-06T05:23:18;3.30;95.80
5899;DHT22;2975;50.956;6.962;2023-04-06T05:25:43;3.50;95.30
5899;DHT22;2975;50.956;6.962;2023-04-06T05:28:09;3.70;94.80
5899;DHT22;2975;50.956;6.962;2023-04-06T05:30:35;4.20;94.70
5899;DHT22;2975;50.956;6.962;2023-04-06T05:33:01;5.00;93.80
5899;DHT22;2975;50.956;6.962;2023-04-06T05:35:27;5.90;92.50
5899;DHT22;2975;50.956;6.962;2023-04-06T05:37:53;6.70;91.20
5899;DHT22;2975;50.956;6.962;2023-04-06T05:40:18;7.50;90.50
5899;DHT22;2975;50.956;6.962;2023-04-06T05:42:44;8.20;86.50
5899;DHT22;2975;50.956;6.962;2023-04-06T05:45:11;8.70;84.60
5899;DHT22;2975;50.956;6.962;2023-04-06T05:47:45;9.30;82.30
5899;DHT22;2975;50.956;6.962;2023-04-06T05:50:11;9.70;80.10
5899;DHT22;2975;50.956;6.962;2023-04-06T05:52:37;10.10;77.50
5899;DHT22;2975;50.956;6.962;2023-04-06T05:55:03;10.60;76.20
5899;DHT22;2975;50.956;6.962;2023-04-06T05:57:29;11.40;74.70
5899;DHT22;2975;50.956;6.962;2023-04-06T05:59:54;12.10;72.80
5899;DHT22;2975;50.956;6.962;2023-04-06T06:02:21;12.00;70.70
5899;DHT22;2975;50.956;6.962;2023-04-06T06:04:47;11.60;69.90
5899;DHT22;2975;50.956;6.962;2023-04-06T06:07:13;10.10;70.80
5899;DHT22;2975;50.956;6.962;2023-04-06T06:09:39;8.80;74.90
5899;DHT22;2975;50.956;6.962;2023-04-06T06:12:05;7.80;77.80
5899;DHT22;2975;50.956;6.962;2023-04-06T06:14:30;7.10;80.20
5899;DHT22;2975;50.956;6.962;2023-04-06T06:16:56;6.70;82.90
5899;DHT22;2975;50.956;6.962;2023-04-06T06:19:22;6.30;83.50
5899;DHT22;2975;50.956;6.962;2023-04-06T06:21:47;6.10;84.80
5899;DHT22;2975;50.956;6.962;2023-04-06T06:24:13;6.00;85.70
5899;DHT22;2975;50.956;6.962;2023-04-06T06:26:39;5.80;86.30
5899;DHT22;2975;50.956;6.962;2023-04-06T06:29:06;5.80;87.10
5899;DHT22;2975;50.956;6.962;2023-04-06T06:31:32;5.70;87.50
5899;DHT22;2975;50.956;6.962;2023-04-06T06:33:58;5.80;88.20
5899;DHT22;2975;50.956;6.962;2023-04-06T06:36:24;5.80;88.20
5899;DHT22;2975;50.956;6.962;2023-04-06T06:38:50;5.80;88.50
5899;DHT22;2975;50.956;6.962;2023-04-06T06:41:17;5.90;89.00
5899;DHT22;2975;50.956;6.962;2023-04-06T06:43:43;5.90;88.60
5899;DHT22;2975;50.956;6.962;2023-04-06T06:46:09;6.00;88.60
5899;DHT22;2975;50.956;6.962;2023-04-06T06:48:34;6.10;88.90
5899;DHT22;2975;50.956;6.962;2023-04-06T06:51:00;6.20;88.90
5899;DHT22;2975;50.956;6.962;2023-04-06T06:53:26;6.30;88.50
5899;DHT22;2975;50.956;6.962;2023-04-06T06:55:52;6.30;88.30
5899;DHT22;2975;50.956;6.962;2023-04-06T06:58:18;6.40;88.50
5899;DHT22;2975;50.956;6.962;2023-04-06T07:00:47;6.40;88.60
5899;DHT22;2975;50.956;6.962;2023-04-06T07:03:13;6.40;89.50
5899;DHT22;2975;50.956;6.962;2023-04-06T07:05:45;6.50;88.80
5899;DHT22;2975;50.956;6.962;2023-04-06T07:08:14;6.60;88.70
5899;DHT22;2975;50.956;6.962;2023-04-06T07:10:40;6.70;88.40
5899;DHT22;2975;50.956;6.962;2023-04-06T07:13:06;6.80;88.10
5899;DHT22;2975;50.956;6.962;2023-04-06T07:15:31;6.80;88.40
5899;DHT22;2975;50.956;6.962;2023-04-06T07:17:57;7.10;87.20
5899;DHT22;2975;50.956;6.962;2023-04-06T07:20:23;7.30;86.90
5899;DHT22;2975;50.956;6.962;2023-04-06T07:22:48;7.40;86.80
5899;DHT22;2975;50.956;6.962;2023-04-06T07:25:14;7.50;87.20
5899;DHT22;2975;50.956;6.962;2023-04-06T07:27:40;7.80;86.30
5899;DHT22;2975;50.956;6.962;2023-04-06T07:30:06;8.10;85.70
5899;DHT22;2975;50.956;6.962;2023-04-06T07:32:32;8.40;84.50
5899;DHT22;2975;50.956;6.962;2023-04-06T07:35:00;8.70;84.10
5899;DHT22;2975;50.956;6.962;2023-04-06T07:37:25;9.00;83.20
5899;DHT22;2975;50.956;6.962;2023-04-06T07:39:51;9.40;82.60
5899;DHT22;2975;50.956;6.962;2023-04-06T07:42:17;9.80;81.30
5899;DHT22;2975;50.956;6.962;2023-04-06T07:44:43;10.00;78.80
5899;DHT22;2975;50.956;6.962;2023-04-06T07:47:09;10.20;77.50
5899;DHT22;2975;50.956;6.962;2023-04-06T07:49:34;10.40;76.70
5899;DHT22;2975;50.956;6.962;2023-04-06T07:52:00;10.50;76.40
5899;DHT22;2975;50.956;6.962;2023-04-06T07:54:28;10.50;76.20
5899;DHT22;2975;50.956;6.962;2023-04-06T07:56:54;10.70;75.20
5899;DHT22;2975;50.956;6.962;2023-04-06T07:59:20;10.70;75.10
5899;DHT22;2975;50.956;6.962;2023-04-06T08:01:46;11.00;73.90
5899;DHT22;2975;50.956;6.962;2023-04-06T08:04:11;10.90;73.70
5899;DHT22;2975;50.956;6.962;2023-04-06T08:06:37;11.00;73.50
5899;DHT22;2975;50.956;6.962;2023-04-06T08:09:03;11.00;73.20
5899;DHT22;2975;50.956;6.962;2023-04-06T08:11:29;10.90;73.20
5899;DHT22;2975;50.956;6.962;2023-04-06T08:13:56;10.90;73.60
5899;DHT22;2975;50.956;6.962;2023-04-06T08:16:23;10.90;73.60
5899;DHT22;2975;50.956;6.962;2023-04-06T08:18:48;10.80;73.80
5899;DHT22;2975;50.956;6.962;2023-04-06T08:21:14;10.80;74.00
5899;DHT22;2975;50.956;6.962;2023-04-06T08:23:40;10.80;74.30
5899;DHT22;2975;50.956;6.962;2023-04-06T08:26:06;10.90;74.30
5899;DHT22;2975;50.956;6.962;2023-04-06T08:28:32;11.00;74.60
5899;DHT22;2975;50.956;6.962;2023-04-06T08:31:04;11.20;73.20
5899;DHT22;2975;50.956;6.962;2023-04-06T08:33:29;11.30;73.00
5899;DHT22;2975;50.956;6.962;2023-04-06T08:35:56;11.40;72.40
5899;DHT22;2975;50.956;6.962;2023-04-06T08:38:22;11.30;72.70
5899;DHT22;2975;50.956;6.962;2023-04-06T08:40:47;11.40;72.10
5899;DHT22;2975;50.956;6.962;2023-04-06T08:43:17;11.40;72.70
5899;DHT22;2975;50.956;6.962;2023-04-06T08:45:44;11.40;73.10
5899;DHT22;2975;50.956;6.962;2023-04-06T08:48:11;11.50;73.40
5899;DHT22;2975;50.956;6.962;2023-04-06T08:50:38;11.60;72.00
5899;DHT22;2975;50.956;6.962;2023-04-06T08:53:06;11.50;72.00
5899;DHT22;2975;50.956;6.962;2023-04-06T08:55:33;11.50;72.10
5899;DHT22;2975;50.956;6.962;2023-04-06T08:58:00;11.40;72.00
5899;DHT22;2975;50.956;6.962;2023-04-06T09:00:27;11.50;71.90
5899;DHT22;2975;50.956;6.962;2023-04-06T09:02:54;11.60;71.50
5899;DHT22;2975;50.956;6.962;2023-04-06T09:05:21;11.80;71.00
5899;DHT22;2975;50.956;6.962;2023-04-06T09:07:47;12.00;71.20
5899;DHT22;2975;50.956;6.962;2023-04-06T09:10:13;12.10;71.50
5899;DHT22;2975;50.956;6.962;2023-04-06T09:12:40;12.20;71.30
5899;DHT22;2975;50.956;6.962;2023-04-06T09:15:06;12.60;70.00
5899;DHT22;2975;50.956;6.962;2023-04-06T09:17:43;12.70;70.20
5899;DHT22;2975;50.956;6.962;2023-04-06T09:20:10;12.90;70.10
5899;DHT22;2975;50.956;6.962;2023-04-06T09:22:37;13.00;70.10
5899;DHT22;2975;50.956;6.962;2023-04-06T09:25:03;13.20;70.30
5899;DHT22;2975;50.956;6.962;2023-04-06T09:27:34;13.50;69.40
5899;DHT22;2975;50.956;6.962;2023-04-06T09:30:08;13.70;69.30
5899;DHT22;2975;50.956;6.962;2023-04-06T09:32:49;13.90;70.00
5899;DHT22;2975;50.956;6.962;2023-04-06T09:35:16;14.20;69.60
5899;DHT22;2975;50.956;6.962;2023-04-06T09:37:42;14.60;68.10
5899;DHT22;2975;50.956;6.962;2023-04-06T09:40:09;14.70;68.80
5899;DHT22;2975;50.956;6.962;2023-04-06T09:42:35;14.60;69.10
5899;DHT22;2975;50.956;6.962;2023-04-06T09:45:02;14.90;68.40
5899;DHT22;2975;50.956;6.962;2023-04-06T09:47:30;15.10;67.20
5899;DHT22;2975;50.956;6.962;2023-04-06T09:49:57;15.20;67.70
5899;DHT22;2975;50.956;6.962;2023-04-06T09:52:31;15.50;66.70
5899;DHT22;2975;50.956;6.962;2023-04-06T09:55:02;15.50;66.60
5899;DHT22;2975;50.956;6.962;2023-04-06T09:57:32;15.50;65.80
5899;DHT22;2975;50.956;6.962;2023-04-06T10:00:05;15.50;66.20
5899;DHT22;2975;50.956;6.962;2023-04-06T10:02:55;15.60;65.70
5899;DHT22;2975;50.956;6.962;2023-04-06T10:07:59;15.60;65.40
5899;DHT22;2975;50.956;6.962;2023-04-06T10:10:26;15.50;66.60
5899;DHT22;2975;50.956;6.962;2023-04-06T10:12:54;15.50;66.50
5899;DHT22;2975;50.956;6.962;2023-04-06T10:15:21;15.70;65.60
5899;DHT22;2975;50.956;6.962;2023-04-06T10:17:47;15.90;64.90
5899;DHT22;2975;50.956;6.962;2023-04-06T10:20:48;15.90;65.90
5899;DHT22;2975;50.956;6.962;2023-04-06T10:23:46;15.70;65.90
5899;DHT22;2975;50.956;6.962;2023-04-06T10:26:16;15.50;66.70
5899;DHT22;2975;50.956;6.962;2023-04-06T10:28:44;15.60;67.70
5899;DHT22;2975;50.956;6.962;2023-04-06T10:31:11;15.80;67.50
5899;DHT22;2975;50.956;6.962;2023-04-06T10:33:37;16.00;65.50
5899;DHT22;2975;50.956;6.962;2023-04-06T10:36:26;16.40;64.30
5899;DHT22;2975;50.956;6.962;2023-04-06T10:39:00;16.50;63.90
5899;DHT22;2975;50.956;6.962;2023-04-06T10:41:52;16.50;64.00
5899;DHT22;2975;50.956;6.962;2023-04-06T10:44:22;16.60;64.60
5899;DHT22;2975;50.956;6.962;2023-04-06T10:46:57;16.80;64.40
5899;DHT22;2975;50.956;6.962;2023-04-06T10:49:24;17.00;63.40
5899;DHT22;2975;50.956;6.962;2023-04-06T10:51:54;17.10;62.40
5899;DHT22;2975;50.956;6.962;2023-04-06T10:54:23;17.40;60.70
5899;DHT22;2975;50.956;6.962;2023-04-06T10:56:49;17.50;60.20
5899;DHT22;2975;50.956;6.962;2023-04-06T10:59:20;17.70;58.60
5899;DHT22;2975;50.956;6.962;2023-04-06T11:01:46;17.70;58.00
5899;DHT22;2975;50.956;6.962;2023-04-06T11:04:16;17.50;57.70
5899;DHT22;2975;50.956;6.962;2023-04-06T11:06:49;17.30;58.50
5899;DHT22;2975;50.956;6.962;2023-04-06T11:09:26;17.20;57.30
5899;DHT22;2975;50.956;6.962;2023-04-06T11:11:52;17.10;58.70
5899;DHT22;2975;50.956;6.962;2023-04-06T11:14:18;17.20;58.10
5899;DHT22;2975;50.956;6.962;2023-04-06T11:16:47;17.20;57.60
5899;DHT22;2975;50.956;6.962;2023-04-06T11:19:16;17.10;57.20
5899;DHT22;2975;50.956;6.962;2023-04-06T11:21:47;16.70;57.60
5899;DHT22;2975;50.956;6.962;2023-04-06T11:24:21;16.50;58.50
5899;DHT22;2975;50.956;6.962;2023-04-06T11:29:21;16.10;58.50
5899;DHT22;2975;50.956;6.962;2023-04-06T11:31:54;16.20;59.00
5899;DHT22;2975;50.956;6.962;2023-04-06T11:34:24;16.50;58.40
5899;DHT22;2975;50.956;6.962;2023-04-06T11:36:59;16.50;58.30
5899;DHT22;2975;50.956;6.962;2023-04-06T11:39:26;16.30;57.70
5899;DHT22;2975;50.956;6.962;2023-04-06T11:41:57;16.30;58.60
5899;DHT22;2975;50.956;6.962;2023-04-06T11:47:02;16.60;56.80
5899;DHT22;2975;50.956;6.962;2023-04-06T11:49:30;16.50;56.80
5899;DHT22;2975;50.956;6.962;2023-04-06T11:51:58;16.40;57.30
5899;DHT22;2975;50.956;6.962;2023-04-06T11:54:31;16.30;58.00
5899;DHT22;2975;50.956;6.962;2023-04-06T11:56:57;16.40;58.90
5899;DHT22;2975;50.956;6.962;2023-04-06T11:59:23;16.40;57.50
5899;DHT22;2975;50.956;6.962;2023-04-06T12:01:48;16.50;59.00
5899;DHT22;2975;50.956;6.962;2023-04-06T12:04:14;16.70;57.60
5899;DHT22;2975;50.956;6.962;2023-04-06T12:06:40;16.70;56.70
5899;DHT22;2975;50.956;6.962;2023-04-06T12:09:06;16.60;56.70
5899;DHT22;2975;50.956;6.962;2023-04-06T12:11:31;16.60;57.10
5899;DHT22;2975;50.956;6.962;2023-04-06T12:13:57;16.50;57.10
5899;DHT22;2975;50.956;6.962;2023-04-06T12:16:24;16.80;57.40
5899;DHT22;2975;50.956;6.962;2023-04-06T12:18:51;17.10;56.50
5899;DHT22;2975;50.956;6.962;2023-04-06T12:21:16;17.00;56.60
5899;DHT22;2975;50.956;6.962;2023-04-06T12:23:42;17.10;57.30
5899;DHT22;2975;50.956;6.962;2023-04-06T12:26:07;17.00;56.70
5899;DHT22;2975;50.956;6.962;2023-04-06T12:28:33;17.00;56.60
5899;DHT22;2975;50.956;6.962;2023-04-06T12:30:59;17.00;55.50
5899;DHT22;2975;50.956;6.962;2023-04-06T12:33:25;17.10;55.00
5899;DHT22;2975;50.956;6.962;2023-04-06T12:35:50;17.00;55.50
5899;DHT22;2975;50.956;6.962;2023-04-06T12:38:16;16.90;55.90
5899;DHT22;2975;50.956;6.962;2023-04-06T12:40:42;16.90;55.30
5899;DHT22;2975;50.956;6.962;2023-04-06T12:43:08;16.90;55.50
5899;DHT22;2975;50.956;6.962;2023-04-06T12:45:34;16.90;56.00
5899;DHT22;2975;50.956;6.962;2023-04-06T12:47:59;16.70;55.90
5899;DHT22;2975;50.956;6.962;2023-04-06T12:50:25;16.90;56.10
5899;DHT22;2975;50.956;6.962;2023-04-06T12:52:51;16.90;56.00
5899;DHT22;2975;50.956;6.962;2023-04-06T12:55:17;16.70;57.10
5899;DHT22;2975;50.956;6.962;2023-04-06T12:57:44;16.50;57.80
5899;DHT22;2975;50.956;6.962;2023-04-06T13:00:11;16.20;58.30
5899;DHT22;2975;50.956;6.962;2023-04-06T13:02:36;16.20;58.00
5899;DHT22;2975;50.956;6.962;2023-04-06T13:05:02;16.10;58.80
5899;DHT22;2975;50.956;6.962;2023-04-06T13:07:28;16.10;59.30
5899;DHT22;2975;50.956;6.962;2023-04-06T13:09:53;16.10;58.90
5899;DHT22;2975;50.956;6.962;2023-04-06T13:12:19;16.00;59.50
5899;DHT22;2975;50.956;6.962;2023-04-06T13:14:45;16.00;60.00
5899;DHT22;2975;50.956;6.962;2023-04-06T13:17:16;15.90;60.50
5899;DHT22;2975;50.956;6.962;2023-04-06T13:19:43;15.90;60.50
5899;DHT22;2975;50.956;6.962;2023-04-06T13:22:08;15.60;61.70
5899;DHT22;2975;50.956;6.962;2023-04-06T13:24:34;15.50;62.20
5899;DHT22;2975;50.956;6.962;2023-04-06T13:27:00;15.50;62.30
5899;DHT22;2975;50.956;6.962;2023-04-06T13:29:26;15.50;63.20
5899;DHT22;2975;50.956;6.962;2023-04-06T13:31:53;15.50;64.50
5899;DHT22;2975;50.956;6.962;2023-04-06T13:34:18;15.40;64.60
5899;DHT22;2975;50.956;6.962;2023-04-06T13:36:44;15.40;65.20
5899;DHT22;2975;50.956;6.962;2023-04-06T13:39:10;15.30;65.50
5899;DHT22;2975;50.956;6.962;2023-04-06T13:41:36;15.20;64.80
5899;DHT22;2975;50.956;6.962;2023-04-06T13:44:01;15.10;65.50
5899;DHT22;2975;50.956;6.962;2023-04-06T13:46:27;15.10;65.30
5899;DHT22;2975;50.956;6.962;2023-04-06T13:48:53;15.00;65.00
5899;DHT22;2975;50.956;6.962;2023-04-06T13:51:19;14.70;65.90
5899;DHT22;2975;50.956;6.962;2023-04-06T13:53:44;14.60;66.30
5899;DHT22;2975;50.956;6.962;2023-04-06T13:56:10;14.50;67.60
5899;DHT22;2975;50.956;6.962;2023-04-06T13:58:36;14.30;67.60
5899;DHT22;2975;50.956;6.962;2023-04-06T14:01:07;14.10;68.20
5899;DHT22;2975;50.956;6.962;2023-04-06T14:03:35;13.80;69.80
5899;DHT22;2975;50.956;6.962;2023-04-06T14:06:01;13.70;70.50
5899;DHT22;2975;50.956;6.962;2023-04-06T14:08:34;13.50;71.30
5899;DHT22;2975;50.956;6.962;2023-04-06T14:11:00;13.40;71.80
5899;DHT22;2975;50.956;6.962;2023-04-06T14:13:26;13.30;72.70
5899;DHT22;2975;50.956;6.962;2023-04-06T14:15:54;13.20;73.20
5899;DHT22;2975;50.956;6.962;2023-04-06T14:18:21;13.10;74.60
5899;DHT22;2975;50.956;6.962;2023-04-06T14:20:56;13.10;75.70
5899;DHT22;2975;50.956;6.962;2023-04-06T14:23:23;13.30;75.70
5899;DHT22;2975;50.956;6.962;2023-04-06T14:26:00;13.60;76.00
5899;DHT22;2975;50.956;6.962;2023-04-06T14:28:26;13.80;76.20
5899;DHT22;2975;50.956;6.962;2023-04-06T14:30:52;13.90;76.50
5899;DHT22;2975;50.956;6.962;2023-04-06T14:33:18;14.00;76.40
5899;DHT22;2975;50.956;6.962;2023-04-06T14:35:44;14.10;77.90
5899;DHT22;2975;50.956;6.962;2023-04-06T14:38:10;14.10;77.90
5899;DHT22;2975;50.956;6.962;2023-04-06T14:40:36;14.10;79.10
5899;DHT22;2975;50.956;6.962;2023-04-06T14:43:03;14.00;79.10
5899;DHT22;2975;50.956;6.962;2023-04-06T14:45:29;13.70;79.20
5899;DHT22;2975;50.956;6.962;2023-04-06T14:47:55;13.60;80.00
5899;DHT22;2975;50.956;6.962;2023-04-06T14:50:21;13.60;80.90
5899;DHT22;2975;50.956;6.962;2023-04-06T14:52:47;13.80;81.30
5899;DHT22;2975;50.956;6.962;2023-04-06T14:55:12;13.80;82.40
5899;DHT22;2975;50.956;6.962;2023-04-06T14:57:39;13.90;82.50
5899;DHT22;2975;50.956;6.962;2023-04-06T15:00:06;13.90;82.30
5899;DHT22;2975;50.956;6.962;2023-04-06T15:02:33;13.80;83.50
5899;DHT22;2975;50.956;6.962;2023-04-06T15:04:59;13.80;84.80
5899;DHT22;2975;50.956;6.962;2023-04-06T15:07:25;13.60;85.80
5899;DHT22;2975;50.956;6.962;2023-04-06T15:09:51;13.50;87.90
5899;DHT22;2975;50.956;6.962;2023-04-06T15:12:16;13.40;88.10
5899;DHT22;2975;50.956;6.962;2023-04-06T15:14:42;13.10;89.00
5899;DHT22;2975;50.956;6.962;2023-04-06T15:17:08;12.90;90.20
5899;DHT22;2975;50.956;6.962;2023-04-06T15:19:34;12.90;90.50
5899;DHT22;2975;50.956;6.962;2023-04-06T15:22:00;12.80;91.60
5899;DHT22;2975;50.956;6.962;2023-04-06T15:24:26;12.60;92.10
5899;DHT22;2975;50.956;6.962;2023-04-06T15:26:52;12.50;92.40
5899;DHT22;2975;50.956;6.962;2023-04-06T15:29:17;12.50;92.80
5899;DHT22;2975;50.956;6.962;2023-04-06T15:31:43;12.40;93.40
5899;DHT22;2975;50.956;6.962;2023-04-06T15:34:09;12.30;94.30
5899;DHT22;2975;50.956;6.962;2023-04-06T15:36:34;12.20;95.70
5899;DHT22;2975;50.956;6.962;2023-04-06T15:39:00;12.10;96.60
5899;DHT22;2975;50.956;6.962;2023-04-06T15:41:26;12.10;96.70
5899;DHT22;2975;50.956;6.962;2023-04-06T15:43:53;12.10;97.30
5899;DHT22;2975;50.956;6.962;2023-04-06T15:46:20;11.90;97.40
5899;DHT22;2975;50.956;6.962;2023-04-06T15:48:46;11.70;97.90
5899;DHT22;2975;50.956;6.962;2023-04-06T15:51:12;11.70;99.50
5899;DHT22;2975;50.956;6.962;2023-04-06T15:53:38;11.60;99.90
5899;DHT22;2975;50.956;6.962;2023-04-06T15:56:04;11.50;99.90
5899;DHT22;2975;50.956;6.962;2023-04-06T15:58:34;11.40;99.90
5899;DHT22;2975;50.956;6.962;2023-04-06T16:01:00;11.40;99.90
5899;DHT22;2975;50.956;6.962;2023-04-06T16:03:26;11.30;99.90
5899;DHT22;2975;50.956;6.962;2023-04-06T16:05:52;11.20;99.90
5899;DHT22;2975;50.956;6.962;2023-04-06T16:08:18;11.10;99.90
5899;DHT22;2975;50.956;6.962;2023-04-06T16:10:44;11.10;99.90
5899;DHT22;2975;50.956;6.962;2023-04-06T16:13:10;11.00;99.90
5899;DHT22;2975;50.956;6.962;2023-04-06T16:15:36;10.90;99.90